createdAt,value
2017-12-22T00:00:53.166Z,97.12
2017-12-22T00:03:21.518Z,97.04
2017-12-22T00:05:49.855Z,97.10
2017-12-22T00:08:18.214Z,96.86
2017-12-22T00:10:46.552Z,96.79
2017-12-22T00:13:14.917Z,96.74
2017-12-22T00:15:47.602Z,96.61
2017-12-22T00:18:15.923Z,96.63
2017-12-22T00:20:44.275Z,96.51
2017-12-22T00:23:12.598Z,96.43
2017-12-22T00:25:40.941Z,96.28
2017-12-22T00:28:09.266Z,96.36
2017-12-22T00:30:37.609Z,96.43
2017-12-22T00:33:05.938Z,96.01
2017-12-22T00:35:34.282Z,95.89
2017-12-22T00:38:02.606Z,96.08
2017-12-22T00:40:30.954Z,96.26
2017-12-22T00:42:59.274Z,96.27
2017-12-22T00:45:27.626Z,96.63
2017-12-22T00:47:55.951Z,96.63
2017-12-22T00:50:24.298Z,96.51
2017-12-22T00:52:52.626Z,96.71
2017-12-22T00:55:20.973Z,96.61
2017-12-22T00:57:49.294Z,96.67
2017-12-22T01:00:17.642Z,96.79
2017-12-22T01:02:45.966Z,96.83
2017-12-22T01:05:14.309Z,96.67
2017-12-22T01:07:42.654Z,96.90
2017-12-22T01:10:10.978Z,96.71
2017-12-22T01:12:39.327Z,96.81
2017-12-22T01:15:07.650Z,96.94
2017-12-22T01:17:41.561Z,97.15
2017-12-22T01:20:09.887Z,97.25
2017-12-22T01:22:38.230Z,97.16
2017-12-22T01:25:06.554Z,97.08
2017-12-22T01:27:34.902Z,97.03
2017-12-22T01:30:03.235Z,96.95
2017-12-22T01:32:31.574Z,97.26
2017-12-22T01:34:59.898Z,97.05
2017-12-22T01:37:28.242Z,97.08
2017-12-22T01:39:56.566Z,97.05
2017-12-22T01:42:24.909Z,97.18
2017-12-22T01:44:53.234Z,97.24
2017-12-22T01:47:21.583Z,97.13
2017-12-22T01:49:49.908Z,97.09
2017-12-22T01:52:18.260Z,97.16
2017-12-22T01:54:46.587Z,97.23
2017-12-22T01:57:14.950Z,97.37
2017-12-22T01:59:43.278Z,97.50
2017-12-22T02:02:11.605Z,97.49
2017-12-22T02:04:39.954Z,97.27
2017-12-22T02:07:08.270Z,97.35
2017-12-22T02:09:36.618Z,97.46
2017-12-22T02:12:04.942Z,97.38
2017-12-22T02:14:33.286Z,97.29
2017-12-22T02:17:01.612Z,97.44
2017-12-22T02:19:29.953Z,97.59
2017-12-22T02:21:58.282Z,97.86
2017-12-22T02:24:26.626Z,98.13
2017-12-22T02:26:54.954Z,98.39
2017-12-22T02:29:23.300Z,98.28
2017-12-22T02:31:51.658Z,97.86
2017-12-22T02:34:20.003Z,97.80
2017-12-22T02:36:48.331Z,97.91
2017-12-22T02:39:16.676Z,97.74
2017-12-22T02:41:44.999Z,97.58
2017-12-22T02:44:13.346Z,97.68
2017-12-22T02:46:41.676Z,97.91
2017-12-22T02:49:10.042Z,97.83
2017-12-22T02:54:12.934Z,97.96
2017-12-22T02:56:41.262Z,97.70
2017-12-22T02:59:09.582Z,97.73
2017-12-22T03:01:37.925Z,97.96
2017-12-22T03:04:06.254Z,98.10
2017-12-22T03:06:34.602Z,98.22
2017-12-22T03:09:02.917Z,98.23
2017-12-22T03:11:31.265Z,98.39
2017-12-22T03:13:59.595Z,98.36
2017-12-22T03:16:27.942Z,98.11
2017-12-22T03:18:56.271Z,97.92
2017-12-22T03:21:24.762Z,98.06
2017-12-22T03:23:53.086Z,97.98
2017-12-22T03:26:21.429Z,98.10
2017-12-22T03:28:49.758Z,98.34
2017-12-22T03:31:18.113Z,98.52
2017-12-22T03:33:46.437Z,98.56
2017-12-22T03:36:14.782Z,98.50
2017-12-22T03:38:43.105Z,98.59
2017-12-22T03:41:11.453Z,98.72
2017-12-22T03:43:39.778Z,98.69
2017-12-22T03:46:08.121Z,98.78
2017-12-22T03:48:36.448Z,98.62
2017-12-22T03:51:04.774Z,98.77
2017-12-22T03:53:33.123Z,98.87
2017-12-22T03:56:01.451Z,98.70
2017-12-22T03:58:29.793Z,98.71
2017-12-22T04:00:58.123Z,98.66
2017-12-22T04:03:26.478Z,98.70
2017-12-22T04:05:54.810Z,98.87
2017-12-22T04:08:23.150Z,98.84
2017-12-22T04:10:51.478Z,98.92
2017-12-22T04:13:19.818Z,98.95
2017-12-22T04:15:48.142Z,98.72
2017-12-22T04:18:16.502Z,98.67
2017-12-22T04:20:44.827Z,98.68
2017-12-22T04:23:13.154Z,98.55
2017-12-22T04:25:41.496Z,98.60
2017-12-22T04:28:09.818Z,98.42
2017-12-22T04:30:38.157Z,98.17
2017-12-22T04:33:06.485Z,98.16
2017-12-22T04:35:34.830Z,98.17
2017-12-22T04:38:03.149Z,98.24
2017-12-22T04:40:31.501Z,98.24
2017-12-22T04:42:59.942Z,98.26
2017-12-22T04:45:28.290Z,98.15
2017-12-22T04:47:56.617Z,98.19
2017-12-22T04:50:24.966Z,98.20
2017-12-22T04:52:53.289Z,98.01
2017-12-22T04:55:21.634Z,98.21
2017-12-22T04:57:49.966Z,98.16
2017-12-22T05:00:18.311Z,98.28
2017-12-22T05:02:47.469Z,98.29
2017-12-22T05:05:15.815Z,98.19
2017-12-22T05:07:44.137Z,98.00
2017-12-22T05:10:12.507Z,97.94
2017-12-22T05:12:40.829Z,97.86
2017-12-22T05:15:09.149Z,97.82
2017-12-22T05:17:37.490Z,97.93
2017-12-22T05:20:05.825Z,97.93
2017-12-22T05:22:34.175Z,97.93
2017-12-22T05:25:02.509Z,97.94
2017-12-22T05:27:30.863Z,98.00
2017-12-22T05:29:59.186Z,97.94
2017-12-22T05:32:27.538Z,97.84
2017-12-22T05:34:55.861Z,97.82
2017-12-22T05:37:24.215Z,97.82
2017-12-22T05:39:52.542Z,97.71
2017-12-22T05:42:20.895Z,97.58
2017-12-22T05:44:49.210Z,97.51
2017-12-22T05:47:17.549Z,97.43
2017-12-22T05:49:45.873Z,97.44
2017-12-22T05:52:14.218Z,97.32
2017-12-22T05:54:42.545Z,97.31
2017-12-22T05:57:10.895Z,97.34
2017-12-22T05:59:39.220Z,97.28
2017-12-22T06:02:07.582Z,97.07
2017-12-22T06:04:35.906Z,97.08
2017-12-22T06:07:04.229Z,97.05
2017-12-22T06:09:32.579Z,97.02
2017-12-22T06:12:00.910Z,97.13
2017-12-22T06:14:29.259Z,97.23
2017-12-22T06:16:57.596Z,97.07
2017-12-22T06:19:25.934Z,96.85
2017-12-22T06:21:54.261Z,96.74
2017-12-22T06:24:22.606Z,96.64
2017-12-22T06:26:50.930Z,96.41
2017-12-22T06:29:19.277Z,96.50
2017-12-22T06:31:47.602Z,96.60
2017-12-22T06:34:15.946Z,96.50
2017-12-22T06:36:44.270Z,96.33
2017-12-22T06:39:12.618Z,96.27
2017-12-22T06:41:40.942Z,96.28
2017-12-22T06:44:09.283Z,96.23
2017-12-22T06:46:37.605Z,96.35
2017-12-22T06:49:05.946Z,96.32
2017-12-22T06:51:34.298Z,96.07
2017-12-22T06:54:02.626Z,95.69
2017-12-22T06:56:30.973Z,95.55
2017-12-22T06:58:59.303Z,95.70
2017-12-22T07:01:27.649Z,95.71
2017-12-22T07:03:56.025Z,95.58
2017-12-22T07:06:24.381Z,95.68
2017-12-22T07:08:52.698Z,95.62
2017-12-22T07:11:21.050Z,95.65
2017-12-22T07:13:49.378Z,95.98
2017-12-22T07:16:17.721Z,95.90
2017-12-22T07:18:46.050Z,95.87
2017-12-22T07:21:14.398Z,96.09
2017-12-22T07:23:42.731Z,96.55
2017-12-22T07:26:11.070Z,97.12
2017-12-22T07:28:39.385Z,97.65
2017-12-22T07:31:07.726Z,97.99
2017-12-22T07:33:36.079Z,98.13
2017-12-22T07:36:04.394Z,97.95
2017-12-22T07:38:32.710Z,98.13
2017-12-22T07:41:01.053Z,98.06
2017-12-22T07:43:29.388Z,98.32
2017-12-22T07:45:57.737Z,98.24
2017-12-22T07:48:26.061Z,98.30
2017-12-22T07:50:54.412Z,98.21
2017-12-22T07:53:22.773Z,98.04
2017-12-22T07:55:51.187Z,98.12
2017-12-22T07:58:19.518Z,98.17
2017-12-22T08:00:47.871Z,98.04
2017-12-22T08:03:16.206Z,97.96
2017-12-22T08:05:44.549Z,97.96
2017-12-22T08:08:12.878Z,97.99
2017-12-22T08:10:41.258Z,98.11
2017-12-22T08:13:09.586Z,97.79
2017-12-22T08:15:37.951Z,97.54
2017-12-22T08:18:06.270Z,97.53
2017-12-22T08:20:35.323Z,97.48
2017-12-22T08:23:03.642Z,97.21
2017-12-22T08:25:32.378Z,97.39
2017-12-22T08:28:00.703Z,97.38
2017-12-22T08:30:29.047Z,97.62
2017-12-22T08:32:57.366Z,97.75
2017-12-22T08:35:26.666Z,97.84
2017-12-22T08:37:54.990Z,97.81
2017-12-22T08:40:23.352Z,97.67
2017-12-22T08:42:51.673Z,97.69
2017-12-22T08:45:21.174Z,97.66
2017-12-22T08:47:49.518Z,97.55
2017-12-22T08:50:17.838Z,97.60
2017-12-22T08:52:46.182Z,97.62
2017-12-22T08:55:14.502Z,97.94
2017-12-22T08:57:42.842Z,98.10
2017-12-22T09:00:11.245Z,97.95
2017-12-22T09:02:39.586Z,97.97
2017-12-22T09:05:07.902Z,98.14
2017-12-22T09:07:36.304Z,98.12
2017-12-22T09:10:04.586Z,98.01
2017-12-22T09:12:32.927Z,98.00
2017-12-22T09:15:01.273Z,97.91
2017-12-22T09:17:29.598Z,97.86
2017-12-22T09:19:57.922Z,97.87
2017-12-22T09:22:26.266Z,98.28
2017-12-22T09:24:55.590Z,98.86
2017-12-22T09:27:23.938Z,99.07
2017-12-22T09:29:52.263Z,98.96
2017-12-22T09:32:20.620Z,98.93
2017-12-22T09:34:48.951Z,98.86
2017-12-22T09:37:17.298Z,98.78
2017-12-22T09:39:45.626Z,98.98
2017-12-22T09:42:13.978Z,98.94
2017-12-22T09:44:43.094Z,98.85
2017-12-22T09:47:11.447Z,98.87
2017-12-22T09:49:39.774Z,98.89
2017-12-22T09:52:08.122Z,98.87
2017-12-22T09:54:36.457Z,98.77
2017-12-22T09:57:04.814Z,98.69
2017-12-22T09:59:33.138Z,98.59
2017-12-22T10:02:01.486Z,98.37
2017-12-22T10:04:30.754Z,97.96
2017-12-22T10:06:59.101Z,97.91
2017-12-22T10:09:27.426Z,97.74
2017-12-22T10:11:55.771Z,97.47
2017-12-22T10:14:24.094Z,97.16
2017-12-22T10:16:52.433Z,96.37
2017-12-22T10:19:20.761Z,95.78
2017-12-22T10:21:49.097Z,95.72
2017-12-22T10:24:17.567Z,95.43
2017-12-22T10:26:45.906Z,95.22
2017-12-22T10:29:14.230Z,94.87
2017-12-22T10:31:42.574Z,94.95
2017-12-22T10:34:10.899Z,94.64
2017-12-22T10:36:39.267Z,94.19
2017-12-22T10:39:07.558Z,93.83
2017-12-22T10:41:35.906Z,93.90
2017-12-22T10:44:04.226Z,93.88
2017-12-22T10:46:32.550Z,93.62
2017-12-22T10:49:00.899Z,93.50
2017-12-22T10:51:29.227Z,93.42
2017-12-22T10:53:57.571Z,93.26
2017-12-22T10:56:25.893Z,93.08
2017-12-22T10:58:54.251Z,93.45
2017-12-22T11:01:22.570Z,93.18
2017-12-22T11:03:50.914Z,92.24
2017-12-22T11:06:19.243Z,92.49
2017-12-22T11:08:48.822Z,92.28
2017-12-22T11:11:17.136Z,91.88
2017-12-22T11:13:45.481Z,92.20
2017-12-22T11:16:13.808Z,92.93
2017-12-22T11:18:42.154Z,92.04
2017-12-22T11:21:10.478Z,91.54
2017-12-22T11:23:38.829Z,91.79
2017-12-22T11:26:07.159Z,91.77
2017-12-22T11:28:35.507Z,91.78
2017-12-22T11:31:03.835Z,91.78
2017-12-22T11:33:32.178Z,92.00
2017-12-22T11:36:00.500Z,92.02
2017-12-22T11:38:28.846Z,92.21
2017-12-22T11:40:57.170Z,92.26
2017-12-22T11:43:25.514Z,91.94
2017-12-22T11:45:53.834Z,91.46
2017-12-22T11:48:22.178Z,91.70
2017-12-22T11:50:50.507Z,91.94
2017-12-22T11:53:18.851Z,91.47
2017-12-22T11:55:48.169Z,91.82
2017-12-22T11:58:16.519Z,91.54
2017-12-22T12:00:44.845Z,91.62
2017-12-22T12:03:13.184Z,91.20
2017-12-22T12:05:42.493Z,91.82
2017-12-22T12:08:10.833Z,91.68
2017-12-22T12:10:39.160Z,92.31
2017-12-22T12:13:07.507Z,92.02
2017-12-22T12:15:35.822Z,92.69
2017-12-22T12:18:04.786Z,93.14
2017-12-22T12:20:33.110Z,93.41
2017-12-22T12:23:01.462Z,93.61
2017-12-22T12:25:30.747Z,93.78
2017-12-22T12:27:59.090Z,94.16
2017-12-22T12:30:27.542Z,94.36
2017-12-22T12:32:55.892Z,94.46
2017-12-22T12:35:25.242Z,94.43
2017-12-22T12:37:53.578Z,94.34
2017-12-22T12:40:21.962Z,94.28
2017-12-22T12:42:50.308Z,94.02
2017-12-22T12:45:19.513Z,93.86
2017-12-22T12:47:48.025Z,93.38
2017-12-22T12:50:16.346Z,93.32
2017-12-22T12:52:44.690Z,93.74
2017-12-22T12:55:13.030Z,93.99
2017-12-22T12:57:41.353Z,94.01
2017-12-22T13:00:09.702Z,93.59
2017-12-22T13:02:38.023Z,93.10
2017-12-22T13:05:06.374Z,92.74
2017-12-22T13:07:34.699Z,92.62
2017-12-22T13:10:03.056Z,92.90
2017-12-22T13:12:31.378Z,93.23
2017-12-22T13:14:59.734Z,93.20
2017-12-22T13:17:28.054Z,92.50
2017-12-22T13:19:56.398Z,92.59
2017-12-22T13:22:24.726Z,92.52
2017-12-22T13:24:53.075Z,92.36
2017-12-22T13:27:21.402Z,92.20
2017-12-22T13:29:49.763Z,91.98
2017-12-22T13:32:18.083Z,92.74
2017-12-22T13:34:46.428Z,93.00
2017-12-22T13:37:14.746Z,93.12
2017-12-22T13:39:43.099Z,92.65
2017-12-22T13:42:11.426Z,92.79
2017-12-22T13:44:39.776Z,93.38
2017-12-22T13:47:08.106Z,93.65
2017-12-22T13:49:36.458Z,93.43
2017-12-22T13:52:04.785Z,93.42
2017-12-22T13:54:33.135Z,93.11
2017-12-22T13:57:04.098Z,92.71
2017-12-22T13:59:32.450Z,92.96
2017-12-22T14:02:00.773Z,92.81
2017-12-22T14:04:29.131Z,93.04
2017-12-22T14:06:57.458Z,93.05
2017-12-22T14:09:25.815Z,93.64
2017-12-22T14:11:54.146Z,93.26
2017-12-22T14:14:22.489Z,94.23
2017-12-22T14:16:50.822Z,94.03
2017-12-22T14:19:19.177Z,93.78
2017-12-22T14:21:47.513Z,93.71
2017-12-22T14:24:15.860Z,94.90
2017-12-22T14:26:44.195Z,95.39
2017-12-22T14:29:12.542Z,95.12
2017-12-22T14:31:40.865Z,95.01
2017-12-22T14:34:09.228Z,94.99
2017-12-22T14:36:37.551Z,94.67
2017-12-22T14:39:05.911Z,94.58
2017-12-22T14:41:34.234Z,94.57
2017-12-22T14:44:02.591Z,94.84
2017-12-22T14:46:30.914Z,94.96
2017-12-22T14:48:59.266Z,94.86
2017-12-22T14:51:27.594Z,95.01
2017-12-22T14:53:55.945Z,94.91
2017-12-22T14:56:24.279Z,94.79
2017-12-22T14:58:52.610Z,94.55
2017-12-22T15:01:20.958Z,94.29
2017-12-22T15:03:49.286Z,93.63
2017-12-22T15:06:17.639Z,93.17
2017-12-22T15:08:45.963Z,93.14
2017-12-22T15:11:14.311Z,93.28
2017-12-22T15:13:42.634Z,93.08
2017-12-22T15:16:10.981Z,93.19
2017-12-22T15:18:39.311Z,93.14
2017-12-22T15:21:07.659Z,93.26
2017-12-22T15:23:35.984Z,93.20
2017-12-22T15:26:04.330Z,93.06
2017-12-22T15:28:32.666Z,93.00
2017-12-22T15:31:01.010Z,93.12
2017-12-22T15:33:29.333Z,93.08
2017-12-22T15:35:57.685Z,93.40
2017-12-22T15:38:26.013Z,93.17
2017-12-22T15:40:54.367Z,92.95
2017-12-22T15:43:22.694Z,93.12
2017-12-22T15:45:51.054Z,93.04
2017-12-22T15:48:19.396Z,93.03
2017-12-22T15:50:47.739Z,92.94
2017-12-22T15:53:16.078Z,93.08
2017-12-22T15:55:44.422Z,93.07
2017-12-22T15:58:12.745Z,93.00
2017-12-22T16:00:41.095Z,93.28
2017-12-22T16:03:09.431Z,93.30
2017-12-22T16:05:37.782Z,93.20
2017-12-22T16:08:06.112Z,93.19
2017-12-22T16:10:34.454Z,92.95
2017-12-22T16:13:02.786Z,92.53
2017-12-22T16:15:31.129Z,92.42
2017-12-22T16:17:59.462Z,92.46
2017-12-22T16:20:27.842Z,92.08
2017-12-22T16:22:56.146Z,92.11
2017-12-22T16:25:24.498Z,92.12
2017-12-22T16:27:52.856Z,92.18
2017-12-22T16:30:21.202Z,92.14
2017-12-22T16:32:49.531Z,92.36
2017-12-22T16:35:18.777Z,92.82
2017-12-22T16:37:47.098Z,93.02
2017-12-22T16:40:15.450Z,93.12
2017-12-22T16:42:43.774Z,93.20
2017-12-22T16:45:12.127Z,93.47
2017-12-22T16:47:40.458Z,93.59
2017-12-22T16:50:08.806Z,93.55
2017-12-22T16:52:37.134Z,93.66
2017-12-22T16:55:05.514Z,93.49
2017-12-22T16:57:33.842Z,93.33
2017-12-22T17:00:02.213Z,93.33
2017-12-22T17:02:30.577Z,92.98
2017-12-22T17:04:58.906Z,93.31
2017-12-22T17:07:27.262Z,93.30
2017-12-22T17:09:55.585Z,93.19
2017-12-22T17:12:23.937Z,93.21
2017-12-22T17:14:52.264Z,93.51
2017-12-22T17:17:20.614Z,93.57
2017-12-22T17:19:48.937Z,93.47
2017-12-22T17:22:17.286Z,93.34
2017-12-22T17:24:45.638Z,93.50
2017-12-22T17:27:13.968Z,93.20
2017-12-22T17:29:42.752Z,93.03
2017-12-22T17:32:11.102Z,92.87
2017-12-22T17:34:39.427Z,93.06
2017-12-22T17:37:07.778Z,93.08
2017-12-22T17:39:36.101Z,93.33
2017-12-22T17:42:04.458Z,93.48
2017-12-22T17:44:32.796Z,93.12
2017-12-22T17:47:01.130Z,92.80
2017-12-22T17:49:29.450Z,93.11
2017-12-22T17:51:57.798Z,92.43
2017-12-22T17:54:26.119Z,92.09
2017-12-22T17:56:54.470Z,92.12
2017-12-22T17:59:22.802Z,92.53
2017-12-22T18:01:51.154Z,92.53
2017-12-22T18:04:19.479Z,92.51
2017-12-22T18:06:47.862Z,92.46
2017-12-22T18:09:15.939Z,92.33
2017-12-22T18:11:43.999Z,92.38
2017-12-22T18:14:12.038Z,92.36
2017-12-22T18:16:40.107Z,91.77
2017-12-22T18:19:08.150Z,91.58
2017-12-22T18:21:36.210Z,91.39
2017-12-22T18:24:04.781Z,91.31
2017-12-22T18:26:34.602Z,91.56
2017-12-22T18:29:02.926Z,91.51
2017-12-22T18:31:31.272Z,91.25
2017-12-22T18:33:59.602Z,91.82
2017-12-22T18:36:27.955Z,91.78
2017-12-22T18:38:56.292Z,91.70
2017-12-22T18:41:24.634Z,91.12
2017-12-22T18:43:52.966Z,91.06
2017-12-22T18:46:21.310Z,90.42
2017-12-22T18:48:49.630Z,89.92
2017-12-22T18:51:17.982Z,90.04
2017-12-22T18:53:46.311Z,90.37
2017-12-22T18:56:14.701Z,90.10
2017-12-22T18:58:43.033Z,90.52
2017-12-22T19:01:11.350Z,90.73
2017-12-22T19:03:39.705Z,91.31
2017-12-22T19:06:08.022Z,91.75
2017-12-22T19:08:36.377Z,91.75
2017-12-22T19:11:04.702Z,91.98
2017-12-22T19:13:33.054Z,91.98
2017-12-22T19:16:01.383Z,91.78
2017-12-22T19:18:29.734Z,91.78
2017-12-22T19:20:58.058Z,92.02
2017-12-22T19:23:26.880Z,92.03
2017-12-22T19:25:55.195Z,92.29
2017-12-22T19:28:24.374Z,92.07
2017-12-22T19:30:52.703Z,92.17
2017-12-22T19:33:21.056Z,91.64
2017-12-22T19:35:55.782Z,92.21
2017-12-22T19:38:24.134Z,91.06
2017-12-22T19:40:52.480Z,91.03
2017-12-22T19:43:20.869Z,91.07
2017-12-22T19:45:49.206Z,91.10
2017-12-22T19:48:18.051Z,91.42
2017-12-22T19:50:46.379Z,91.37
2017-12-22T19:53:14.726Z,91.28
2017-12-22T19:55:43.059Z,91.25
2017-12-22T19:58:11.411Z,91.12
2017-12-22T20:00:39.737Z,91.11
2017-12-22T20:03:19.801Z,91.37
2017-12-22T20:05:48.127Z,91.23
2017-12-22T20:08:16.479Z,90.91
2017-12-22T20:10:44.815Z,90.90
2017-12-22T20:13:13.171Z,90.81
2017-12-22T20:15:41.817Z,90.80
2017-12-22T20:18:10.166Z,91.06
2017-12-22T20:20:38.502Z,90.98
2017-12-22T20:23:06.855Z,91.06
2017-12-22T20:25:36.071Z,91.11
2017-12-22T20:28:04.433Z,91.10
2017-12-22T20:30:32.754Z,91.23
2017-12-22T20:33:01.113Z,90.90
2017-12-22T20:35:29.567Z,91.12
2017-12-22T20:37:57.913Z,91.27
2017-12-22T20:40:26.261Z,91.53
2017-12-22T20:42:54.614Z,91.58
2017-12-22T20:45:22.941Z,91.56
2017-12-22T20:47:51.284Z,91.54
2017-12-22T20:50:19.610Z,91.52
2017-12-22T20:52:47.959Z,92.51
2017-12-22T20:55:16.386Z,91.84
2017-12-22T20:57:44.739Z,91.76
2017-12-22T21:00:13.079Z,91.43
2017-12-22T21:02:41.410Z,91.56
2017-12-22T21:05:09.742Z,91.73
2017-12-22T21:07:38.085Z,91.95
2017-12-22T21:10:06.411Z,92.13
2017-12-22T21:12:34.762Z,92.04
2017-12-22T21:15:04.115Z,91.94
2017-12-22T21:17:32.594Z,92.34
2017-12-22T21:20:00.923Z,92.27
2017-12-22T21:22:29.263Z,92.10
2017-12-22T21:24:57.609Z,92.02
2017-12-22T21:27:25.934Z,92.13
2017-12-22T21:29:54.286Z,92.07
2017-12-22T21:32:22.618Z,92.51
2017-12-22T21:34:50.965Z,92.52
2017-12-22T21:37:19.321Z,92.48
2017-12-22T21:39:47.667Z,92.65
2017-12-22T21:42:15.995Z,92.60
2017-12-22T21:44:44.350Z,92.80
2017-12-22T21:47:12.733Z,92.97
2017-12-22T21:49:41.086Z,93.30
2017-12-22T21:52:09.422Z,93.19
2017-12-22T21:54:37.771Z,93.07
2017-12-22T21:57:06.098Z,93.31
2017-12-22T21:59:34.446Z,93.55
2017-12-22T22:02:02.778Z,93.93
2017-12-22T22:04:31.124Z,93.95
2017-12-22T22:06:59.505Z,93.90
2017-12-22T22:09:27.850Z,93.87
2017-12-22T22:11:56.174Z,93.90
2017-12-22T22:14:24.530Z,93.74
2017-12-22T22:16:52.910Z,93.72
2017-12-22T22:19:21.212Z,93.86
2017-12-22T22:21:49.538Z,93.82
2017-12-22T22:24:17.886Z,94.05
2017-12-22T22:26:47.214Z,93.98
2017-12-22T22:29:15.562Z,93.93
2017-12-22T22:31:43.953Z,93.80
2017-12-22T22:34:13.231Z,93.73
2017-12-22T22:36:41.604Z,93.73
2017-12-22T22:39:09.953Z,93.79
2017-12-22T22:41:38.278Z,93.92
2017-12-22T22:44:06.631Z,93.97
2017-12-22T22:46:35.516Z,93.75
2017-12-22T22:49:03.850Z,93.57
2017-12-22T22:51:32.210Z,93.86
2017-12-22T22:54:00.566Z,94.11
2017-12-22T22:56:28.894Z,93.85
2017-12-22T22:58:57.241Z,93.51
2017-12-22T23:01:25.574Z,93.48
2017-12-22T23:03:53.931Z,93.49
2017-12-22T23:06:22.266Z,93.51
2017-12-22T23:08:50.613Z,93.58
2017-12-22T23:11:18.979Z,93.33
2017-12-22T23:13:47.306Z,92.72
2017-12-22T23:16:15.642Z,92.67
2017-12-22T23:18:44.006Z,92.70
2017-12-22T23:21:12.337Z,92.49
2017-12-22T23:23:40.666Z,92.42
2017-12-22T23:26:09.015Z,92.98
2017-12-22T23:28:37.648Z,93.51
2017-12-22T23:31:06.369Z,93.29
2017-12-22T23:33:35.464Z,93.24
2017-12-22T23:36:04.257Z,93.30
2017-12-22T23:38:33.006Z,92.97
2017-12-22T23:41:01.405Z,93.03
2017-12-22T23:43:29.735Z,93.40
2017-12-22T23:45:58.087Z,93.61
2017-12-22T23:48:26.409Z,93.80
2017-12-22T23:50:54.760Z,94.26
2017-12-22T23:53:23.090Z,94.81
2017-12-22T23:55:51.442Z,95.15
2017-12-22T23:58:19.774Z,95.10
